sensor_id;sensor_type;location;lat;lon;timestamp;P1;durP1;ratioP1;P2;durP2;ratioP2
24650;SDS011;12783;48.824;8.662;2023-07-20T00:02:03;4.10;;;2.15;;
24650;SDS011;12783;48.824;8.662;2023-07-20T00:04:31;12.05;;;2.20;;
24650;SDS011;12783;48.824;8.662;2023-07-20T00:06:59;3.75;;;2.00;;
24650;SDS011;12783;48.824;8.662;2023-07-20T00:09:27;3.17;;;1.75;;
24650;SDS011;12783;48.824;8.662;2023-07-20T00:11:54;6.45;;;2.15;;
24650;SDS011;12783;48.824;8.662;2023-07-20T00:14:22;7.97;;;2.30;;
24650;SDS011;12783;48.824;8.662;2023-07-20T00:16:52;3.97;;;2.17;;
24650;SDS011;12783;48.824;8.662;2023-07-20T00:19:23;4.43;;;1.85;;
24650;SDS011;12783;48.824;8.662;2023-07-20T00:21:54;3.60;;;1.90;;
24650;SDS011;12783;48.824;8.662;2023-07-20T00:24:21;3.80;;;2.10;;
24650;SDS011;12783;48.824;8.662;2023-07-20T00:26:48;8.80;;;2.00;;
24650;SDS011;12783;48.824;8.662;2023-07-20T00:29:15;7.00;;;2.13;;
24650;SDS011;12783;48.824;8.662;2023-07-20T00:31:42;7.53;;;1.85;;
24650;SDS011;12783;48.824;8.662;2023-07-20T00:34:10;3.47;;;2.03;;
24650;SDS011;12783;48.824;8.662;2023-07-20T00:36:37;5.45;;;1.90;;
24650;SDS011;12783;48.824;8.662;2023-07-20T00:39:04;4.40;;;2.25;;
24650;SDS011;12783;48.824;8.662;2023-07-20T00:41:31;3.45;;;2.05;;
24650;SDS011;12783;48.824;8.662;2023-07-20T00:43:59;6.28;;;1.88;;
24650;SDS011;12783;48.824;8.662;2023-07-20T00:46:26;4.88;;;1.83;;
24650;SDS011;12783;48.824;8.662;2023-07-20T00:48:53;3.95;;;2.20;;
24650;SDS011;12783;48.824;8.662;2023-07-20T00:51:22;5.22;;;1.83;;
24650;SDS011;12783;48.824;8.662;2023-07-20T00:53:50;3.33;;;2.00;;
24650;SDS011;12783;48.824;8.662;2023-07-20T00:56:17;4.47;;;2.00;;
24650;SDS011;12783;48.824;8.662;2023-07-20T00:58:45;4.55;;;1.92;;
24650;SDS011;12783;48.824;8.662;2023-07-20T01:01:12;3.95;;;2.35;;
24650;SDS011;12783;48.824;8.662;2023-07-20T01:03:40;4.10;;;1.63;;
24650;SDS011;12783;48.824;8.662;2023-07-20T01:09:08;4.22;;;1.88;;
24650;SDS011;12783;48.824;8.662;2023-07-20T01:11:51;7.18;;;1.85;;
24650;SDS011;12783;48.824;8.662;2023-07-20T01:14:31;4.10;;;1.70;;
24650;SDS011;12783;48.824;8.662;2023-07-20T01:16:59;4.25;;;1.70;;
24650;SDS011;12783;48.824;8.662;2023-07-20T01:19:25;3.65;;;1.70;;
24650;SDS011;12783;48.824;8.662;2023-07-20T01:21:54;3.42;;;1.75;;
24650;SDS011;12783;48.824;8.662;2023-07-20T01:28:06;5.03;;;1.60;;
24650;SDS011;12783;48.824;8.662;2023-07-20T01:33:56;4.82;;;2.20;;
24650;SDS011;12783;48.824;8.662;2023-07-20T01:36:28;3.78;;;1.90;;
24650;SDS011;12783;48.824;8.662;2023-07-20T01:39:00;3.80;;;1.92;;
24650;SDS011;12783;48.824;8.662;2023-07-20T01:41:28;5.82;;;2.30;;
24650;SDS011;12783;48.824;8.662;2023-07-20T01:43:58;3.92;;;1.90;;
24650;SDS011;12783;48.824;8.662;2023-07-20T01:46:26;2.95;;;1.70;;
24650;SDS011;12783;48.824;8.662;2023-07-20T01:48:53;8.45;;;2.03;;
24650;SDS011;12783;48.824;8.662;2023-07-20T01:51:20;4.22;;;2.10;;
24650;SDS011;12783;48.824;8.662;2023-07-20T01:53:47;4.78;;;2.00;;
24650;SDS011;12783;48.824;8.662;2023-07-20T01:56:14;4.60;;;2.20;;
24650;SDS011;12783;48.824;8.662;2023-07-20T01:58:41;3.70;;;2.05;;
24650;SDS011;12783;48.824;8.662;2023-07-20T02:01:08;3.92;;;1.58;;
24650;SDS011;12783;48.824;8.662;2023-07-20T02:03:35;2.42;;;1.77;;
24650;SDS011;12783;48.824;8.662;2023-07-20T02:06:02;5.00;;;1.90;;
24650;SDS011;12783;48.824;8.662;2023-07-20T02:08:29;5.70;;;1.70;;
24650;SDS011;12783;48.824;8.662;2023-07-20T02:10:57;2.47;;;1.52;;
24650;SDS011;12783;48.824;8.662;2023-07-20T02:13:24;4.20;;;1.77;;
24650;SDS011;12783;48.824;8.662;2023-07-20T02:15:51;3.42;;;1.98;;
24650;SDS011;12783;48.824;8.662;2023-07-20T02:18:18;6.07;;;2.03;;
24650;SDS011;12783;48.824;8.662;2023-07-20T02:20:45;3.28;;;1.52;;
24650;SDS011;12783;48.824;8.662;2023-07-20T02:23:12;3.78;;;1.80;;
24650;SDS011;12783;48.824;8.662;2023-07-20T02:25:39;3.88;;;1.60;;
24650;SDS011;12783;48.824;8.662;2023-07-20T02:28:07;2.40;;;1.65;;
24650;SDS011;12783;48.824;8.662;2023-07-20T02:30:37;6.18;;;1.73;;
24650;SDS011;12783;48.824;8.662;2023-07-20T02:33:05;5.35;;;2.20;;
24650;SDS011;12783;48.824;8.662;2023-07-20T02:35:33;4.50;;;1.77;;
24650;SDS011;12783;48.824;8.662;2023-07-20T02:38:00;7.15;;;2.05;;
24650;SDS011;12783;48.824;8.662;2023-07-20T02:40:27;2.50;;;1.60;;
24650;SDS011;12783;48.824;8.662;2023-07-20T02:42:54;5.95;;;1.67;;
24650;SDS011;12783;48.824;8.662;2023-07-20T02:45:21;5.60;;;1.65;;
24650;SDS011;12783;48.824;8.662;2023-07-20T02:47:48;3.38;;;1.70;;
24650;SDS011;12783;48.824;8.662;2023-07-20T02:50:15;2.72;;;1.75;;
24650;SDS011;12783;48.824;8.662;2023-07-20T02:52:42;5.88;;;1.80;;
24650;SDS011;12783;48.824;8.662;2023-07-20T02:55:09;3.42;;;1.90;;
24650;SDS011;12783;48.824;8.662;2023-07-20T02:57:36;2.95;;;1.33;;
24650;SDS011;12783;48.824;8.662;2023-07-20T03:00:03;3.38;;;1.70;;
24650;SDS011;12783;48.824;8.662;2023-07-20T03:02:32;2.30;;;1.50;;
24650;SDS011;12783;48.824;8.662;2023-07-20T03:05:00;2.50;;;1.50;;
24650;SDS011;12783;48.824;8.662;2023-07-20T03:07:28;3.42;;;1.60;;
24650;SDS011;12783;48.824;8.662;2023-07-20T03:09:55;2.97;;;1.48;;
24650;SDS011;12783;48.824;8.662;2023-07-20T03:12:22;5.50;;;2.00;;
24650;SDS011;12783;48.824;8.662;2023-07-20T03:14:50;4.43;;;1.70;;
24650;SDS011;12783;48.824;8.662;2023-07-20T03:17:17;3.10;;;1.55;;
24650;SDS011;12783;48.824;8.662;2023-07-20T03:19:44;3.47;;;1.50;;
24650;SDS011;12783;48.824;8.662;2023-07-20T03:22:11;4.55;;;1.70;;
24650;SDS011;12783;48.824;8.662;2023-07-20T03:24:39;4.40;;;1.70;;
24650;SDS011;12783;48.824;8.662;2023-07-20T03:27:06;3.88;;;1.70;;
24650;SDS011;12783;48.824;8.662;2023-07-20T03:29:33;2.58;;;1.67;;
24650;SDS011;12783;48.824;8.662;2023-07-20T03:32:00;3.17;;;1.60;;
24650;SDS011;12783;48.824;8.662;2023-07-20T03:34:26;4.45;;;1.73;;
24650;SDS011;12783;48.824;8.662;2023-07-20T03:36:54;2.38;;;1.50;;
24650;SDS011;12783;48.824;8.662;2023-07-20T03:39:22;2.55;;;1.40;;
24650;SDS011;12783;48.824;8.662;2023-07-20T03:41:49;2.67;;;1.50;;
24650;SDS011;12783;48.824;8.662;2023-07-20T03:44:16;3.70;;;1.80;;
24650;SDS011;12783;48.824;8.662;2023-07-20T03:46:43;8.18;;;1.92;;
24650;SDS011;12783;48.824;8.662;2023-07-20T03:49:10;3.00;;;1.55;;
24650;SDS011;12783;48.824;8.662;2023-07-20T03:51:37;3.67;;;1.77;;
24650;SDS011;12783;48.824;8.662;2023-07-20T03:54:04;4.75;;;1.40;;
24650;SDS011;12783;48.824;8.662;2023-07-20T03:56:31;2.53;;;1.70;;
24650;SDS011;12783;48.824;8.662;2023-07-20T03:59:01;2.45;;;1.42;;
24650;SDS011;12783;48.824;8.662;2023-07-20T04:01:28;3.13;;;1.70;;
24650;SDS011;12783;48.824;8.662;2023-07-20T04:03:55;3.95;;;1.60;;
24650;SDS011;12783;48.824;8.662;2023-07-20T04:06:22;5.68;;;1.80;;
24650;SDS011;12783;48.824;8.662;2023-07-20T04:08:50;2.58;;;1.58;;
24650;SDS011;12783;48.824;8.662;2023-07-20T04:11:16;2.00;;;1.40;;
24650;SDS011;12783;48.824;8.662;2023-07-20T04:13:43;2.70;;;1.50;;
24650;SDS011;12783;48.824;8.662;2023-07-20T04:16:10;5.22;;;1.45;;
24650;SDS011;12783;48.824;8.662;2023-07-20T04:18:37;2.53;;;1.45;;
24650;SDS011;12783;48.824;8.662;2023-07-20T04:21:04;2.03;;;1.48;;
24650;SDS011;12783;48.824;8.662;2023-07-20T04:23:35;4.50;;;1.50;;
24650;SDS011;12783;48.824;8.662;2023-07-20T04:26:03;2.08;;;1.65;;
24650;SDS011;12783;48.824;8.662;2023-07-20T04:28:30;2.63;;;1.50;;
24650;SDS011;12783;48.824;8.662;2023-07-20T04:31:09;3.72;;;1.50;;
24650;SDS011;12783;48.824;8.662;2023-07-20T04:33:41;2.88;;;1.60;;
24650;SDS011;12783;48.824;8.662;2023-07-20T04:36:08;3.45;;;1.50;;
24650;SDS011;12783;48.824;8.662;2023-07-20T04:38:35;3.75;;;1.65;;
24650;SDS011;12783;48.824;8.662;2023-07-20T04:41:02;2.90;;;1.52;;
24650;SDS011;12783;48.824;8.662;2023-07-20T04:43:29;3.83;;;1.30;;
24650;SDS011;12783;48.824;8.662;2023-07-20T04:45:56;2.53;;;1.52;;
24650;SDS011;12783;48.824;8.662;2023-07-20T04:48:24;1.70;;;1.25;;
24650;SDS011;12783;48.824;8.662;2023-07-20T04:50:51;3.97;;;1.70;;
24650;SDS011;12783;48.824;8.662;2023-07-20T04:53:18;2.53;;;1.50;;
24650;SDS011;12783;48.824;8.662;2023-07-20T04:55:49;2.35;;;1.67;;
24650;SDS011;12783;48.824;8.662;2023-07-20T04:58:19;3.22;;;1.48;;
24650;SDS011;12783;48.824;8.662;2023-07-20T05:00:50;4.95;;;1.60;;
24650;SDS011;12783;48.824;8.662;2023-07-20T05:03:18;6.75;;;1.70;;
24650;SDS011;12783;48.824;8.662;2023-07-20T05:05:46;3.13;;;1.65;;
24650;SDS011;12783;48.824;8.662;2023-07-20T05:08:15;4.90;;;1.60;;
24650;SDS011;12783;48.824;8.662;2023-07-20T05:10:43;4.38;;;1.80;;
24650;SDS011;12783;48.824;8.662;2023-07-20T05:13:09;4.43;;;1.83;;
24650;SDS011;12783;48.824;8.662;2023-07-20T05:15:37;5.32;;;1.80;;
24650;SDS011;12783;48.824;8.662;2023-07-20T05:18:04;4.90;;;1.75;;
24650;SDS011;12783;48.824;8.662;2023-07-20T05:20:31;6.05;;;1.98;;
24650;SDS011;12783;48.824;8.662;2023-07-20T05:22:59;4.70;;;1.63;;
24650;SDS011;12783;48.824;8.662;2023-07-20T05:25:27;4.85;;;2.13;;
24650;SDS011;12783;48.824;8.662;2023-07-20T05:27:56;4.30;;;1.65;;
24650;SDS011;12783;48.824;8.662;2023-07-20T05:30:23;3.17;;;1.63;;
24650;SDS011;12783;48.824;8.662;2023-07-20T05:32:50;5.35;;;1.70;;
24650;SDS011;12783;48.824;8.662;2023-07-20T05:35:19;5.65;;;1.75;;
24650;SDS011;12783;48.824;8.662;2023-07-20T05:37:46;4.65;;;1.92;;
24650;SDS011;12783;48.824;8.662;2023-07-20T05:40:14;2.90;;;1.65;;
24650;SDS011;12783;48.824;8.662;2023-07-20T05:42:45;26.60;;;1.95;;
24650;SDS011;12783;48.824;8.662;2023-07-20T05:45:12;3.55;;;1.70;;
24650;SDS011;12783;48.824;8.662;2023-07-20T05:47:43;4.60;;;1.60;;
24650;SDS011;12783;48.824;8.662;2023-07-20T05:50:10;3.50;;;1.73;;
24650;SDS011;12783;48.824;8.662;2023-07-20T05:52:37;4.85;;;1.60;;
24650;SDS011;12783;48.824;8.662;2023-07-20T05:55:05;6.47;;;2.13;;
24650;SDS011;12783;48.824;8.662;2023-07-20T05:57:33;7.47;;;1.77;;
24650;SDS011;12783;48.824;8.662;2023-07-20T06:00:00;8.00;;;1.90;;
24650;SDS011;12783;48.824;8.662;2023-07-20T06:02:27;4.45;;;1.95;;
24650;SDS011;12783;48.824;8.662;2023-07-20T06:04:55;2.78;;;1.73;;
24650;SDS011;12783;48.824;8.662;2023-07-20T06:07:22;3.67;;;1.70;;
24650;SDS011;12783;48.824;8.662;2023-07-20T06:09:48;3.70;;;1.67;;
24650;SDS011;12783;48.824;8.662;2023-07-20T06:12:16;2.83;;;1.52;;
24650;SDS011;12783;48.824;8.662;2023-07-20T06:14:43;4.57;;;1.95;;
24650;SDS011;12783;48.824;8.662;2023-07-20T06:17:09;4.38;;;1.45;;
24650;SDS011;12783;48.824;8.662;2023-07-20T06:19:36;2.58;;;1.50;;
24650;SDS011;12783;48.824;8.662;2023-07-20T06:22:03;3.70;;;1.70;;
24650;SDS011;12783;48.824;8.662;2023-07-20T06:24:31;3.92;;;1.88;;
24650;SDS011;12783;48.824;8.662;2023-07-20T06:26:58;3.95;;;2.00;;
24650;SDS011;12783;48.824;8.662;2023-07-20T06:29:24;7.13;;;2.25;;
24650;SDS011;12783;48.824;8.662;2023-07-20T06:31:51;4.00;;;1.77;;
24650;SDS011;12783;48.824;8.662;2023-07-20T06:34:18;5.00;;;1.80;;
24650;SDS011;12783;48.824;8.662;2023-07-20T06:36:49;5.95;;;1.67;;
24650;SDS011;12783;48.824;8.662;2023-07-20T06:39:16;3.13;;;1.80;;
24650;SDS011;12783;48.824;8.662;2023-07-20T06:41:46;4.78;;;2.15;;
24650;SDS011;12783;48.824;8.662;2023-07-20T06:44:13;4.03;;;2.00;;
24650;SDS011;12783;48.824;8.662;2023-07-20T06:46:39;9.38;;;2.30;;
24650;SDS011;12783;48.824;8.662;2023-07-20T06:49:06;7.20;;;2.55;;
24650;SDS011;12783;48.824;8.662;2023-07-20T06:51:37;8.35;;;1.83;;
24650;SDS011;12783;48.824;8.662;2023-07-20T06:54:04;4.85;;;1.77;;
24650;SDS011;12783;48.824;8.662;2023-07-20T06:56:31;6.90;;;2.00;;
24650;SDS011;12783;48.824;8.662;2023-07-20T06:58:59;5.13;;;2.13;;
24650;SDS011;12783;48.824;8.662;2023-07-20T07:01:26;4.80;;;2.20;;
24650;SDS011;12783;48.824;8.662;2023-07-20T07:03:53;3.70;;;2.10;;
24650;SDS011;12783;48.824;8.662;2023-07-20T07:06:21;8.05;;;2.50;;
24650;SDS011;12783;48.824;8.662;2023-07-20T07:08:50;5.88;;;2.05;;
24650;SDS011;12783;48.824;8.662;2023-07-20T07:11:17;5.13;;;2.05;;
24650;SDS011;12783;48.824;8.662;2023-07-20T07:13:44;4.38;;;1.70;;
24650;SDS011;12783;48.824;8.662;2023-07-20T07:16:13;7.40;;;1.90;;
24650;SDS011;12783;48.824;8.662;2023-07-20T07:18:46;4.10;;;2.00;;
24650;SDS011;12783;48.824;8.662;2023-07-20T07:21:13;6.18;;;2.10;;
24650;SDS011;12783;48.824;8.662;2023-07-20T07:23:40;6.53;;;2.30;;
24650;SDS011;12783;48.824;8.662;2023-07-20T07:26:07;3.17;;;1.92;;
24650;SDS011;12783;48.824;8.662;2023-07-20T07:28:35;8.02;;;2.00;;
24650;SDS011;12783;48.824;8.662;2023-07-20T07:31:06;6.28;;;2.85;;
24650;SDS011;12783;48.824;8.662;2023-07-20T07:33:33;5.20;;;2.60;;
24650;SDS011;12783;48.824;8.662;2023-07-20T07:36:01;4.45;;;2.03;;
24650;SDS011;12783;48.824;8.662;2023-07-20T07:38:28;8.57;;;2.00;;
24650;SDS011;12783;48.824;8.662;2023-07-20T07:41:15;7.88;;;2.33;;
24650;SDS011;12783;48.824;8.662;2023-07-20T07:43:42;7.50;;;2.30;;
24650;SDS011;12783;48.824;8.662;2023-07-20T07:46:09;6.40;;;1.90;;
24650;SDS011;12783;48.824;8.662;2023-07-20T07:48:36;8.10;;;2.47;;
24650;SDS011;12783;48.824;8.662;2023-07-20T07:51:03;5.50;;;2.10;;
24650;SDS011;12783;48.824;8.662;2023-07-20T07:53:30;5.38;;;2.03;;
24650;SDS011;12783;48.824;8.662;2023-07-20T07:55:58;7.38;;;2.03;;
24650;SDS011;12783;48.824;8.662;2023-07-20T07:58:25;5.72;;;2.15;;
24650;SDS011;12783;48.824;8.662;2023-07-20T08:00:52;5.35;;;2.05;;
24650;SDS011;12783;48.824;8.662;2023-07-20T08:03:19;4.55;;;1.92;;
24650;SDS011;12783;48.824;8.662;2023-07-20T08:05:46;8.20;;;1.95;;
24650;SDS011;12783;48.824;8.662;2023-07-20T08:08:13;5.05;;;2.13;;
24650;SDS011;12783;48.824;8.662;2023-07-20T08:10:40;4.82;;;1.80;;
24650;SDS011;12783;48.824;8.662;2023-07-20T08:13:07;5.45;;;2.05;;
24650;SDS011;12783;48.824;8.662;2023-07-20T08:15:34;3.70;;;1.80;;
24650;SDS011;12783;48.824;8.662;2023-07-20T08:18:01;6.30;;;1.83;;
24650;SDS011;12783;48.824;8.662;2023-07-20T08:20:28;3.28;;;1.80;;
24650;SDS011;12783;48.824;8.662;2023-07-20T08:22:55;3.15;;;1.55;;
24650;SDS011;12783;48.824;8.662;2023-07-20T08:25:22;9.00;;;2.05;;
24650;SDS011;12783;48.824;8.662;2023-07-20T08:27:49;4.13;;;1.70;;
24650;SDS011;12783;48.824;8.662;2023-07-20T08:30:16;2.70;;;1.70;;
24650;SDS011;12783;48.824;8.662;2023-07-20T08:32:43;5.00;;;1.65;;
24650;SDS011;12783;48.824;8.662;2023-07-20T08:35:10;4.47;;;2.15;;
24650;SDS011;12783;48.824;8.662;2023-07-20T08:37:41;3.13;;;1.80;;
24650;SDS011;12783;48.824;8.662;2023-07-20T08:40:08;5.20;;;2.05;;
24650;SDS011;12783;48.824;8.662;2023-07-20T08:42:35;2.08;;;1.80;;
24650;SDS011;12783;48.824;8.662;2023-07-20T08:45:06;4.35;;;1.58;;
24650;SDS011;12783;48.824;8.662;2023-07-20T08:47:34;2.90;;;1.70;;
24650;SDS011;12783;48.824;8.662;2023-07-20T08:50:02;4.22;;;1.90;;
24650;SDS011;12783;48.824;8.662;2023-07-20T08:52:34;6.43;;;1.58;;
24650;SDS011;12783;48.824;8.662;2023-07-20T08:55:01;3.00;;;1.60;;
24650;SDS011;12783;48.824;8.662;2023-07-20T08:57:31;1.48;;;1.25;;
24650;SDS011;12783;48.824;8.662;2023-07-20T09:00:03;3.20;;;1.25;;
24650;SDS011;12783;48.824;8.662;2023-07-20T09:02:33;2.00;;;1.20;;
24650;SDS011;12783;48.824;8.662;2023-07-20T09:05:05;3.45;;;1.10;;
24650;SDS011;12783;48.824;8.662;2023-07-20T09:07:36;2.20;;;1.05;;
24650;SDS011;12783;48.824;8.662;2023-07-20T09:10:03;1.85;;;1.00;;
24650;SDS011;12783;48.824;8.662;2023-07-20T09:12:35;2.80;;;1.30;;
24650;SDS011;12783;48.824;8.662;2023-07-20T09:15:05;4.03;;;1.38;;
24650;SDS011;12783;48.824;8.662;2023-07-20T09:17:33;6.47;;;1.20;;
24650;SDS011;12783;48.824;8.662;2023-07-20T09:20:04;1.80;;;1.17;;
24650;SDS011;12783;48.824;8.662;2023-07-20T09:22:36;2.95;;;1.50;;
24650;SDS011;12783;48.824;8.662;2023-07-20T09:25:08;1.52;;;1.27;;
24650;SDS011;12783;48.824;8.662;2023-07-20T09:30:12;5.50;;;1.58;;
24650;SDS011;12783;48.824;8.662;2023-07-20T09:32:44;5.03;;;1.20;;
24650;SDS011;12783;48.824;8.662;2023-07-20T09:35:17;3.45;;;1.10;;
24650;SDS011;12783;48.824;8.662;2023-07-20T09:37:49;3.58;;;1.10;;
24650;SDS011;12783;48.824;8.662;2023-07-20T09:40:27;1.92;;;1.00;;
24650;SDS011;12783;48.824;8.662;2023-07-20T09:42:58;7.10;;;1.00;;
24650;SDS011;12783;48.824;8.662;2023-07-20T09:45:33;4.07;;;1.40;;
24650;SDS011;12783;48.824;8.662;2023-07-20T09:48:04;3.00;;;1.50;;
24650;SDS011;12783;48.824;8.662;2023-07-20T09:50:39;2.70;;;1.33;;
24650;SDS011;12783;48.824;8.662;2023-07-20T09:53:12;2.40;;;1.10;;
24650;SDS011;12783;48.824;8.662;2023-07-20T09:55:40;4.72;;;1.27;;
24650;SDS011;12783;48.824;8.662;2023-07-20T09:58:10;2.20;;;1.33;;
24650;SDS011;12783;48.824;8.662;2023-07-20T10:00:38;2.47;;;1.08;;
24650;SDS011;12783;48.824;8.662;2023-07-20T10:03:16;4.80;;;1.42;;
24650;SDS011;12783;48.824;8.662;2023-07-20T10:05:47;5.45;;;1.20;;
24650;SDS011;12783;48.824;8.662;2023-07-20T10:08:21;2.28;;;1.20;;
24650;SDS011;12783;48.824;8.662;2023-07-20T10:10:54;3.08;;;1.48;;
24650;SDS011;12783;48.824;8.662;2023-07-20T10:13:27;4.00;;;1.30;;
24650;SDS011;12783;48.824;8.662;2023-07-20T10:16:07;2.15;;;1.38;;
24650;SDS011;12783;48.824;8.662;2023-07-20T10:22:03;4.20;;;1.48;;
24650;SDS011;12783;48.824;8.662;2023-07-20T10:24:38;4.17;;;1.50;;
24650;SDS011;12783;48.824;8.662;2023-07-20T10:27:08;1.80;;;1.08;;
24650;SDS011;12783;48.824;8.662;2023-07-20T10:29:35;2.05;;;1.30;;
24650;SDS011;12783;48.824;8.662;2023-07-20T10:32:03;2.00;;;1.35;;
24650;SDS011;12783;48.824;8.662;2023-07-20T10:34:34;1.67;;;0.80;;
24650;SDS011;12783;48.824;8.662;2023-07-20T10:37:01;2.53;;;1.15;;
24650;SDS011;12783;48.824;8.662;2023-07-20T10:39:28;2.20;;;1.20;;
24650;SDS011;12783;48.824;8.662;2023-07-20T10:42:02;1.83;;;1.17;;
24650;SDS011;12783;48.824;8.662;2023-07-20T10:44:37;1.85;;;1.15;;
24650;SDS011;12783;48.824;8.662;2023-07-20T10:47:09;2.15;;;1.10;;
24650;SDS011;12783;48.824;8.662;2023-07-20T10:49:57;3.35;;;1.20;;
24650;SDS011;12783;48.824;8.662;2023-07-20T10:52:31;1.38;;;0.88;;
24650;SDS011;12783;48.824;8.662;2023-07-20T10:55:10;1.17;;;0.80;;
24650;SDS011;12783;48.824;8.662;2023-07-20T10:57:41;2.58;;;1.00;;
24650;SDS011;12783;48.824;8.662;2023-07-20T11:00:14;1.52;;;0.93;;
24650;SDS011;12783;48.824;8.662;2023-07-20T11:02:48;1.17;;;1.00;;
24650;SDS011;12783;48.824;8.662;2023-07-20T11:05:33;2.90;;;0.95;;
24650;SDS011;12783;48.824;8.662;2023-07-20T11:08:03;4.30;;;1.20;;
24650;SDS011;12783;48.824;8.662;2023-07-20T11:10:38;1.50;;;1.00;;
24650;SDS011;12783;48.824;8.662;2023-07-20T11:13:19;1.02;;;0.80;;
24650;SDS011;12783;48.824;8.662;2023-07-20T11:18:25;1.00;;;0.82;;
24650;SDS011;12783;48.824;8.662;2023-07-20T11:20:53;1.48;;;0.90;;
24650;SDS011;12783;48.824;8.662;2023-07-20T11:23:20;4.88;;;0.93;;
24650;SDS011;12783;48.824;8.662;2023-07-20T11:25:48;1.65;;;1.10;;
24650;SDS011;12783;48.824;8.662;2023-07-20T11:28:16;2.58;;;1.10;;
24650;SDS011;12783;48.824;8.662;2023-07-20T11:30:43;2.03;;;1.08;;
24650;SDS011;12783;48.824;8.662;2023-07-20T11:33:10;1.33;;;1.10;;
24650;SDS011;12783;48.824;8.662;2023-07-20T11:35:44;1.42;;;1.00;;
24650;SDS011;12783;48.824;8.662;2023-07-20T11:38:15;2.05;;;1.20;;
24650;SDS011;12783;48.824;8.662;2023-07-20T11:40:45;1.40;;;1.00;;
24650;SDS011;12783;48.824;8.662;2023-07-20T11:43:13;2.58;;;1.10;;
24650;SDS011;12783;48.824;8.662;2023-07-20T11:45:43;3.67;;;1.40;;
24650;SDS011;12783;48.824;8.662;2023-07-20T11:48:15;1.48;;;1.00;;
24650;SDS011;12783;48.824;8.662;2023-07-20T11:50:43;2.75;;;1.38;;
24650;SDS011;12783;48.824;8.662;2023-07-20T11:53:10;4.93;;;1.55;;
24650;SDS011;12783;48.824;8.662;2023-07-20T11:55:39;2.78;;;1.25;;
24650;SDS011;12783;48.824;8.662;2023-07-20T11:58:08;1.55;;;1.20;;
24650;SDS011;12783;48.824;8.662;2023-07-20T12:00:36;4.32;;;1.23;;
24650;SDS011;12783;48.824;8.662;2023-07-20T12:03:05;2.20;;;1.40;;
24650;SDS011;12783;48.824;8.662;2023-07-20T12:05:34;1.92;;;0.90;;
24650;SDS011;12783;48.824;8.662;2023-07-20T12:08:21;3.58;;;1.00;;
24650;SDS011;12783;48.824;8.662;2023-07-20T12:10:48;1.65;;;0.88;;
24650;SDS011;12783;48.824;8.662;2023-07-20T12:13:16;1.38;;;1.10;;
24650;SDS011;12783;48.824;8.662;2023-07-20T12:15:43;1.27;;;0.90;;
24650;SDS011;12783;48.824;8.662;2023-07-20T12:18:10;1.02;;;0.80;;
24650;SDS011;12783;48.824;8.662;2023-07-20T12:20:37;1.20;;;1.00;;
24650;SDS011;12783;48.824;8.662;2023-07-20T12:23:09;2.67;;;1.20;;
24650;SDS011;12783;48.824;8.662;2023-07-20T12:25:45;1.02;;;0.80;;
24650;SDS011;12783;48.824;8.662;2023-07-20T12:28:17;1.98;;;1.05;;
24650;SDS011;12783;48.824;8.662;2023-07-20T12:30:45;3.85;;;1.05;;
24650;SDS011;12783;48.824;8.662;2023-07-20T12:33:14;4.68;;;1.20;;
24650;SDS011;12783;48.824;8.662;2023-07-20T12:35:42;1.38;;;1.00;;
24650;SDS011;12783;48.824;8.662;2023-07-20T12:38:09;2.47;;;0.95;;
24650;SDS011;12783;48.824;8.662;2023-07-20T12:40:36;1.85;;;1.10;;
24650;SDS011;12783;48.824;8.662;2023-07-20T12:43:03;2.13;;;0.80;;
24650;SDS011;12783;48.824;8.662;2023-07-20T12:45:31;1.10;;;0.85;;
24650;SDS011;12783;48.824;8.662;2023-07-20T12:47:58;3.13;;;1.17;;
24650;SDS011;12783;48.824;8.662;2023-07-20T12:50:26;3.88;;;1.10;;
24650;SDS011;12783;48.824;8.662;2023-07-20T12:52:53;5.35;;;1.25;;
24650;SDS011;12783;48.824;8.662;2023-07-20T12:55:20;1.88;;;1.15;;
24650;SDS011;12783;48.824;8.662;2023-07-20T12:57:47;1.27;;;0.80;;
24650;SDS011;12783;48.824;8.662;2023-07-20T13:00:14;2.72;;;1.15;;
24650;SDS011;12783;48.824;8.662;2023-07-20T13:02:42;1.73;;;0.95;;
24650;SDS011;12783;48.824;8.662;2023-07-20T13:05:10;1.70;;;1.00;;
24650;SDS011;12783;48.824;8.662;2023-07-20T13:07:37;1.33;;;1.10;;
24650;SDS011;12783;48.824;8.662;2023-07-20T13:10:08;2.15;;;1.08;;
24650;SDS011;12783;48.824;8.662;2023-07-20T13:12:37;2.17;;;1.10;;
24650;SDS011;12783;48.824;8.662;2023-07-20T13:15:05;1.98;;;1.08;;
24650;SDS011;12783;48.824;8.662;2023-07-20T13:17:34;3.88;;;1.20;;
24650;SDS011;12783;48.824;8.662;2023-07-20T13:20:03;0.93;;;0.90;;
24650;SDS011;12783;48.824;8.662;2023-07-20T13:22:32;1.77;;;0.90;;
24650;SDS011;12783;48.824;8.662;2023-07-20T13:25:00;1.38;;;1.10;;
24650;SDS011;12783;48.824;8.662;2023-07-20T13:27:27;1.30;;;1.10;;
24650;SDS011;12783;48.824;8.662;2023-07-20T13:29:54;3.13;;;1.00;;
24650;SDS011;12783;48.824;8.662;2023-07-20T13:32:21;3.72;;;0.90;;
24650;SDS011;12783;48.824;8.662;2023-07-20T13:34:50;2.55;;;1.10;;
24650;SDS011;12783;48.824;8.662;2023-07-20T13:37:17;2.42;;;1.20;;
24650;SDS011;12783;48.824;8.662;2023-07-20T13:39:44;3.95;;;1.20;;
24650;SDS011;12783;48.824;8.662;2023-07-20T13:42:11;1.92;;;1.15;;
24650;SDS011;12783;48.824;8.662;2023-07-20T13:44:39;2.67;;;1.10;;
24650;SDS011;12783;48.824;8.662;2023-07-20T13:47:07;2.17;;;1.15;;
24650;SDS011;12783;48.824;8.662;2023-07-20T13:49:37;1.90;;;1.17;;
24650;SDS011;12783;48.824;8.662;2023-07-20T13:52:13;4.43;;;1.33;;
24650;SDS011;12783;48.824;8.662;2023-07-20T13:54:43;1.52;;;1.20;;
24650;SDS011;12783;48.824;8.662;2023-07-20T13:57:13;1.50;;;1.20;;
24650;SDS011;12783;48.824;8.662;2023-07-20T13:59:42;1.25;;;1.08;;
24650;SDS011;12783;48.824;8.662;2023-07-20T14:02:09;1.67;;;1.10;;
24650;SDS011;12783;48.824;8.662;2023-07-20T14:04:40;4.90;;;1.30;;
24650;SDS011;12783;48.824;8.662;2023-07-20T14:07:08;2.05;;;1.15;;
24650;SDS011;12783;48.824;8.662;2023-07-20T14:09:35;5.03;;;1.25;;
24650;SDS011;12783;48.824;8.662;2023-07-20T14:12:03;2.00;;;1.25;;
24650;SDS011;12783;48.824;8.662;2023-07-20T14:14:34;1.58;;;1.17;;
24650;SDS011;12783;48.824;8.662;2023-07-20T14:17:00;4.55;;;1.23;;
24650;SDS011;12783;48.824;8.662;2023-07-20T14:19:27;1.63;;;1.20;;
24650;SDS011;12783;48.824;8.662;2023-07-20T14:21:54;1.67;;;1.10;;
24650;SDS011;12783;48.824;8.662;2023-07-20T14:24:21;2.15;;;1.15;;
24650;SDS011;12783;48.824;8.662;2023-07-20T14:26:48;2.30;;;1.35;;
24650;SDS011;12783;48.824;8.662;2023-07-20T14:29:17;2.65;;;1.00;;
24650;SDS011;12783;48.824;8.662;2023-07-20T14:31:45;2.28;;;1.20;;
24650;SDS011;12783;48.824;8.662;2023-07-20T14:34:17;3.92;;;1.40;;
24650;SDS011;12783;48.824;8.662;2023-07-20T14:36:45;2.60;;;1.25;;
24650;SDS011;12783;48.824;8.662;2023-07-20T14:39:12;2.78;;;1.00;;
24650;SDS011;12783;48.824;8.662;2023-07-20T14:41:39;2.75;;;1.05;;
24650;SDS011;12783;48.824;8.662;2023-07-20T14:44:06;1.45;;;1.13;;
24650;SDS011;12783;48.824;8.662;2023-07-20T14:46:32;2.35;;;1.30;;
24650;SDS011;12783;48.824;8.662;2023-07-20T14:49:00;2.03;;;1.33;;
24650;SDS011;12783;48.824;8.662;2023-07-20T14:51:28;3.60;;;0.90;;
24650;SDS011;12783;48.824;8.662;2023-07-20T14:54:02;3.70;;;1.30;;
24650;SDS011;12783;48.824;8.662;2023-07-20T14:56:29;1.55;;;0.90;;
24650;SDS011;12783;48.824;8.662;2023-07-20T14:58:56;1.20;;;1.00;;
24650;SDS011;12783;48.824;8.662;2023-07-20T15:01:24;2.72;;;1.30;;
24650;SDS011;12783;48.824;8.662;2023-07-20T15:03:51;2.38;;;1.13;;
24650;SDS011;12783;48.824;8.662;2023-07-20T15:06:23;1.27;;;1.02;;
24650;SDS011;12783;48.824;8.662;2023-07-20T15:08:51;1.58;;;1.27;;
24650;SDS011;12783;48.824;8.662;2023-07-20T15:11:18;1.15;;;0.93;;
24650;SDS011;12783;48.824;8.662;2023-07-20T15:13:45;1.85;;;0.95;;
24650;SDS011;12783;48.824;8.662;2023-07-20T15:16:12;1.20;;;0.80;;